Time;durP1;ratioP1;P1;durP2;ratioP2;P2;SDS_P1;SDS_P2;PMS_P1;PMS_P2;Temp;Humidity;BMP_temperature;BMP_pressure;BME280_temperature;BME280_humidity;BME280_pressure;Samples;Min_cycle;Max_cycle;Signal;HPM_P1;HPM_P2
2021/09/14 00:00:37;;;;;;;5.10;2.38;;;12.20;99.90;;;;;;5054595;28;20787;-77
2021/09/14 00:03:03;;;;;;;2.55;2.13;;;12.20;99.90;;;;;;5054613;28;20705;-79
2021/09/14 00:05:29;;;;;;;2.70;2.20;;;12.10;99.90;;;;;;5052907;28;20185;-77
2021/09/14 00:07:56;;;;;;;2.80;2.03;;;12.10;99.90;;;;;;5054319;28;20257;-77
2021/09/14 00:10:22;;;;;;;2.60;2.13;;;12.10;99.90;;;;;;5053142;28;20289;-77
2021/09/14 00:12:47;;;;;;;2.97;2.25;;;12.00;99.90;;;;;;5049799;28;20526;-78
2021/09/14 00:15:13;;;;;;;2.72;2.17;;;12.00;99.90;;;;;;5054231;28;20193;-78
2021/09/14 00:17:39;;;;;;;2.80;2.42;;;11.90;99.90;;;;;;5035731;28;20182;-77
2021/09/14 00:20:06;;;;;;;4.28;2.45;;;11.90;99.90;;;;;;5051790;28;20652;-77
2021/09/14 00:22:31;;;;;;;3.38;2.38;;;11.80;99.90;;;;;;5049001;28;20656;-78
2021/09/14 00:24:57;;;;;;;2.03;1.80;;;11.80;99.90;;;;;;5036605;28;20178;-77
2021/09/14 00:27:22;;;;;;;3.55;2.67;;;11.70;99.90;;;;;;5032351;28;20318;-77
2021/09/14 00:29:48;;;;;;;3.17;2.03;;;11.80;99.90;;;;;;5054473;28;20231;-79
2021/09/14 00:32:14;;;;;;;2.97;2.00;;;11.90;99.90;;;;;;5036199;28;20244;-77
2021/09/14 00:34:40;;;;;;;3.42;2.42;;;12.00;99.90;;;;;;5036266;28;20186;-79
2021/09/14 00:37:06;;;;;;;4.65;2.13;;;11.80;99.90;;;;;;5056701;28;20196;-77
2021/09/14 00:39:32;;;;;;;4.85;2.30;;;11.80;99.90;;;;;;5052195;28;20274;-77
2021/09/14 00:41:57;;;;;;;3.28;2.05;;;11.80;99.90;;;;;;5063317;28;20221;-79
2021/09/14 00:44:24;;;;;;;2.63;1.80;;;11.80;99.90;;;;;;5049114;28;20178;-79
2021/09/14 00:46:50;;;;;;;3.10;2.25;;;11.70;99.90;;;;;;5067188;28;20637;-79
2021/09/14 00:49:15;;;;;;;2.85;2.13;;;11.70;99.90;;;;;;5067726;28;20185;-77
2021/09/14 00:51:41;;;;;;;3.70;2.50;;;11.80;99.90;;;;;;5047669;28;20783;-78
2021/09/14 00:54:17;;;;;;;2.65;2.20;;;11.70;99.90;;;;;;5067412;28;20182;-80
2021/09/14 00:56:43;;;;;;;3.90;2.47;;;11.70;99.90;;;;;;5067386;28;20192;-77
2021/09/14 00:59:09;;;;;;;4.05;2.42;;;11.60;99.90;;;;;;5066933;28;20324;-78
2021/09/14 01:01:35;;;;;;;4.00;2.20;;;11.60;99.90;;;;;;5065784;28;20217;-79
2021/09/14 01:04:01;;;;;;;4.75;2.13;;;11.60;99.90;;;;;;5066919;28;20179;-78
2021/09/14 01:06:27;;;;;;;2.95;2.00;;;11.60;99.90;;;;;;5067020;28;20185;-77
2021/09/14 01:08:53;;;;;;;2.67;1.98;;;11.50;99.90;;;;;;5066476;28;20186;-78
2021/09/14 01:11:19;;;;;;;2.07;1.67;;;11.50;99.90;;;;;;5065848;28;20212;-79
2021/09/14 01:13:44;;;;;;;2.28;1.83;;;11.50;99.90;;;;;;5066749;28;20197;-78
2021/09/14 01:16:13;;;;;;;2.83;2.03;;;11.40;99.90;;;;;;5066859;28;20185;-80
2021/09/14 01:18:40;;;;;;;3.83;2.30;;;11.40;99.90;;;;;;5066516;28;20186;-79
2021/09/14 01:21:06;;;;;;;2.75;2.35;;;11.30;99.90;;;;;;5065862;28;20202;-78
2021/09/14 01:23:33;;;;;;;4.65;2.58;;;11.30;99.90;;;;;;5066661;28;20177;-79
2021/09/14 01:25:59;;;;;;;3.50;2.25;;;11.20;99.90;;;;;;5066805;28;20216;-78
2021/09/14 01:28:24;;;;;;;2.88;2.40;;;11.20;99.90;;;;;;5066374;28;20209;-78
2021/09/14 01:30:50;;;;;;;3.42;2.70;;;11.20;99.90;;;;;;5047435;28;20202;-76
2021/09/14 01:33:16;;;;;;;3.45;2.75;;;11.20;99.90;;;;;;5066081;28;20273;-77
2021/09/14 01:35:43;;;;;;;4.20;2.97;;;11.20;99.90;;;;;;5066600;28;20181;-78
2021/09/14 01:38:09;;;;;;;4.55;3.08;;;11.20;99.90;;;;;;5066567;28;20489;-79
2021/09/14 01:40:35;;;;;;;3.58;2.90;;;11.20;99.90;;;;;;5065514;28;20223;-78
2021/09/14 01:43:04;;;;;;;3.77;2.87;;;11.20;99.90;;;;;;5047778;28;20216;-76
2021/09/14 01:45:30;;;;;;;6.25;3.25;;;11.20;99.90;;;;;;5066340;28;20264;-76
2021/09/14 01:47:55;;;;;;;5.53;3.40;;;11.20;99.90;;;;;;5065775;28;20310;-77
2021/09/14 01:50:21;;;;;;;5.72;3.30;;;11.30;99.90;;;;;;5047033;28;20242;-78
2021/09/14 01:52:47;;;;;;;4.07;2.95;;;11.20;99.90;;;;;;5063503;28;20880;-78
2021/09/14 01:55:13;;;;;;;5.15;3.65;;;11.20;99.90;;;;;;5046481;28;20189;-77
2021/09/14 01:57:41;;;;;;;4.43;3.30;;;11.20;99.90;;;;;;5065040;28;20201;-76
2021/09/14 02:00:16;;;;;;;6.72;3.30;;;11.20;99.90;;;;;;5064938;28;20242;-77
2021/09/14 02:08:27;;;;;;;4.30;3.55;;;11.10;99.90;;;;;;5065470;28;20188;-76
2021/09/14 03:00:15;;;;;;;7.40;4.90;;;11.10;99.90;;;;;;5064329;28;20216;-75
2021/09/14 03:02:44;;;;;;;8.20;5.23;;;11.10;99.90;;;;;;5063511;28;20181;-77
2021/09/14 03:05:10;;;;;;;9.23;5.97;;;11.10;99.90;;;;;;5062698;28;20273;-78
2021/09/14 03:07:35;;;;;;;8.90;5.60;;;11.10;99.90;;;;;;5062819;28;20181;-78
2021/09/14 03:10:01;;;;;;;8.73;5.70;;;11.10;99.90;;;;;;5062469;28;20193;-79
2021/09/14 03:12:27;;;;;;;9.90;5.80;;;11.00;99.90;;;;;;5043986;28;20664;-78
2021/09/14 03:14:52;;;;;;;7.83;5.00;;;11.00;99.90;;;;;;5043933;28;20196;-79
2021/09/14 03:17:18;;;;;;;7.97;5.17;;;11.00;99.90;;;;;;5063607;28;20188;-77
2021/09/14 03:19:43;;;;;;;8.97;5.80;;;11.00;99.90;;;;;;5043843;28;20205;-75
2021/09/14 03:22:09;;;;;;;8.60;4.83;;;10.90;99.90;;;;;;5062311;28;20205;-79
2021/09/14 03:24:35;;;;;;;8.40;5.43;;;10.90;99.90;;;;;;5043732;28;20181;-78
2021/09/14 03:27:00;;;;;;;8.37;5.80;;;10.90;99.90;;;;;;5062913;28;20185;-75
2021/09/14 03:29:26;;;;;;;8.47;5.43;;;10.80;99.90;;;;;;5063252;28;20534;-75
2021/09/14 03:31:51;;;;;;;8.80;5.30;;;10.80;99.90;;;;;;5062336;28;20198;-78
2021/09/14 03:34:17;;;;;;;8.07;5.33;;;10.70;99.90;;;;;;5063732;28;20182;-75
2021/09/14 03:36:43;;;;;;;9.03;5.43;;;10.70;99.90;;;;;;5063612;28;20264;-79
2021/09/14 03:39:09;;;;;;;7.57;5.13;;;10.70;99.90;;;;;;5063667;28;20632;-79
2021/09/14 03:41:35;;;;;;;6.97;5.40;;;10.70;99.90;;;;;;5062303;28;20228;-76
2021/09/14 03:44:01;;;;;;;7.00;5.67;;;10.70;99.90;;;;;;5063768;28;20177;-77
2021/09/14 03:46:26;;;;;;;8.67;5.83;;;10.70;99.90;;;;;;5063476;28;20548;-77
2021/09/14 03:48:52;;;;;;;7.90;5.60;;;10.70;99.90;;;;;;5063168;28;20228;-78
2021/09/14 03:51:18;;;;;;;6.80;4.87;;;10.60;99.90;;;;;;5044261;28;20205;-80
2021/09/14 03:53:43;;;;;;;9.27;5.40;;;10.60;99.90;;;;;;5062955;28;20220;-79
2021/09/14 03:56:09;;;;;;;8.03;5.40;;;10.60;99.90;;;;;;5045272;28;20608;-78
2021/09/14 03:58:34;;;;;;;10.63;6.90;;;10.50;99.90;;;;;;5062654;28;20192;-78
2021/09/14 04:01:00;;;;;;;11.40;6.93;;;10.60;99.90;;;;;;5062331;28;20296;-77
2021/09/14 04:04:15;;;;;;;10.83;6.80;;;10.60;99.90;;;;;;5063071;28;20269;-79
2021/09/14 04:08:58;;;;;;;10.53;6.40;;;10.70;99.90;;;;;;5063762;28;20227;-77
2021/09/14 04:11:23;;;;;;;9.03;6.50;;;10.70;99.90;;;;;;5043895;28;20214;-76
2021/09/14 04:13:52;;;;;;;9.77;6.30;;;10.70;99.90;;;;;;5045057;28;20264;-75
2021/09/14 04:16:19;;;;;;;11.30;6.70;;;10.70;99.90;;;;;;5062518;28;20307;-77
2021/09/14 04:18:45;;;;;;;8.20;6.00;;;10.80;99.90;;;;;;5063157;28;20197;-78
2021/09/14 04:21:11;;;;;;;7.57;5.93;;;10.80;99.90;;;;;;5062260;28;21327;-78
2021/09/14 04:23:36;;;;;;;9.03;6.00;;;10.80;99.90;;;;;;5063073;28;20208;-77
2021/09/14 04:26:02;;;;;;;11.50;6.30;;;10.90;99.90;;;;;;5063196;28;20448;-77
2021/09/14 04:28:28;;;;;;;10.68;6.75;;;10.90;99.90;;;;;;5062928;28;20194;-76
2021/09/14 04:30:54;;;;;;;10.53;6.07;;;11.00;99.90;;;;;;5061827;28;20477;-78
2021/09/14 04:33:19;;;;;;;9.45;6.05;;;11.10;99.90;;;;;;5063136;28;20211;-76
2021/09/14 04:35:45;;;;;;;9.45;6.38;;;11.10;99.90;;;;;;5044648;28;20192;-79
2021/09/14 04:38:11;;;;;;;9.85;6.65;;;11.10;99.90;;;;;;5063071;28;20620;-77
2021/09/14 04:40:36;;;;;;;7.88;6.35;;;11.10;99.90;;;;;;5061953;28;20263;-78
2021/09/14 04:43:02;;;;;;;9.27;6.57;;;11.20;99.90;;;;;;5062980;28;20560;-78
2021/09/14 04:45:28;;;;;;;15.60;7.10;;;11.10;99.90;;;;;;5043930;28;20189;-80
2021/09/14 04:47:54;;;;;;;10.82;6.68;;;11.20;99.90;;;;;;5044732;28;20190;-78
2021/09/14 04:50:20;;;;;;;9.83;7.10;;;11.20;99.90;;;;;;5062493;28;20217;-77
2021/09/14 04:52:45;;;;;;;12.27;7.40;;;11.20;99.90;;;;;;5062137;28;20204;-80
2021/09/14 04:55:11;;;;;;;9.60;6.47;;;11.20;99.90;;;;;;5063054;28;20276;-78
2021/09/14 04:57:37;;;;;;;14.63;6.87;;;11.20;99.90;;;;;;5062640;28;20224;-75
2021/09/14 05:00:04;;;;;;;11.30;6.88;;;11.20;99.90;;;;;;5062346;28;20278;-79
2021/09/14 05:02:29;;;;;;;12.90;7.17;;;11.20;99.90;;;;;;5061953;28;20225;-75
2021/09/14 05:04:56;;;;;;;10.97;6.60;;;11.10;99.90;;;;;;5062722;28;20610;-76
2021/09/14 05:07:22;;;;;;;9.13;6.60;;;11.20;99.90;;;;;;5062108;28;20645;-77
2021/09/14 05:09:47;;;;;;;11.25;7.10;;;11.20;99.90;;;;;;5062421;28;20194;-77
2021/09/14 05:12:13;;;;;;;10.00;7.25;;;11.20;99.90;;;;;;5061605;28;20676;-80
2021/09/14 05:14:38;;;;;;;11.18;6.32;;;11.20;99.90;;;;;;5062273;28;20543;-78
2021/09/14 05:17:04;;;;;;;11.80;7.07;;;11.20;99.90;;;;;;5062646;28;20194;-77
2021/09/14 05:19:34;;;;;;;9.98;7.30;;;11.20;99.90;;;;;;5062330;28;20234;-77
2021/09/14 05:22:01;;;;;;;10.07;7.03;;;11.20;99.90;;;;;;5061483;28;20455;-76
2021/09/14 05:24:30;;;;;;;11.13;7.68;;;11.30;99.90;;;;;;5062820;28;20527;-76
2021/09/14 05:26:56;;;;;;;11.00;7.13;;;11.30;99.90;;;;;;5062990;28;20251;-78
2021/09/14 05:29:22;;;;;;;11.10;7.40;;;11.30;99.90;;;;;;5065621;28;20684;-79
2021/09/14 05:31:49;;;;;;;11.80;7.93;;;11.40;99.90;;;;;;5065158;28;20205;-78
2021/09/14 05:34:15;;;;;;;10.80;6.90;;;11.40;99.90;;;;;;5048216;28;20195;-75
2021/09/14 05:36:41;;;;;;;14.18;8.48;;;11.40;99.90;;;;;;5065886;28;20464;-79
2021/09/14 05:39:07;;;;;;;12.27;8.05;;;11.50;99.90;;;;;;5066173;28;20665;-78
2021/09/14 05:41:33;;;;;;;14.75;8.48;;;11.60;99.90;;;;;;5064447;28;20222;-75
2021/09/14 05:43:59;;;;;;;11.90;7.88;;;11.70;99.90;;;;;;5047515;28;20231;-76
2021/09/14 05:46:25;;;;;;;11.77;8.00;;;11.70;99.90;;;;;;5065518;28;20247;-77
2021/09/14 05:48:51;;;;;;;11.25;7.28;;;11.90;99.90;;;;;;5066019;28;20177;-77
2021/09/14 05:51:17;;;;;;;9.57;8.13;;;11.90;99.90;;;;;;5064831;28;20271;-77
2021/09/14 05:53:43;;;;;;;12.20;8.05;;;12.10;99.90;;;;;;5064942;28;20380;-81
2021/09/14 05:56:08;;;;;;;15.13;8.85;;;12.20;99.90;;;;;;5065584;28;20256;-80
2021/09/14 05:58:34;;;;;;;11.57;8.45;;;12.20;99.90;;;;;;5064981;28;20182;-78
2021/09/14 06:01:00;;;;;;;12.32;8.27;;;12.30;99.90;;;;;;5064805;28;20769;-79
2021/09/14 06:03:29;;;;;;;12.30;7.90;;;12.50;99.90;;;;;;5065140;28;20182;-77
2021/09/14 06:05:56;;;;;;;13.82;9.65;;;12.50;99.90;;;;;;5065519;28;20194;-81
2021/09/14 06:08:22;;;;;;;12.20;7.82;;;12.60;99.90;;;;;;5064590;28;20181;-80
2021/09/14 06:10:47;;;;;;;12.20;8.68;;;12.80;99.90;;;;;;5046253;28;20688;-80
2021/09/14 06:13:13;;;;;;;11.23;8.40;;;12.80;99.90;;;;;;5064935;28;20981;-76
2021/09/14 06:15:39;;;;;;;11.70;7.78;;;13.00;99.90;;;;;;5065357;28;20571;-80
2021/09/14 06:18:05;;;;;;;11.93;8.35;;;13.10;99.90;;;;;;5046637;28;20480;-80
2021/09/14 06:20:31;;;;;;;11.57;9.38;;;13.30;99.90;;;;;;5064773;28;20224;-77
2021/09/14 06:22:56;;;;;;;13.40;8.00;;;13.40;99.90;;;;;;5064713;28;20561;-78
2021/09/14 06:25:22;;;;;;;11.90;8.60;;;13.50;99.90;;;;;;5064729;28;20610;-80
2021/09/14 06:27:48;;;;;;;13.43;9.73;;;13.60;99.90;;;;;;5064525;28;20173;-80
2021/09/14 06:30:13;;;;;;;11.98;9.43;;;13.80;99.90;;;;;;5064987;28;20300;-77
2021/09/14 06:32:39;;;;;;;11.70;8.98;;;13.90;99.90;;;;;;5063079;28;20192;-77
2021/09/14 06:35:05;;;;;;;11.93;8.48;;;14.10;99.90;;;;;;5064297;28;20193;-77
2021/09/14 06:37:31;;;;;;;12.38;7.85;;;14.20;99.90;;;;;;5064543;28;20193;-79
2021/09/14 06:39:57;;;;;;;12.43;8.73;;;14.30;99.90;;;;;;5045729;28;20687;-77
2021/09/14 06:42:25;;;;;;;13.35;9.15;;;14.40;99.90;;;;;;5064427;28;20181;-79
2021/09/14 06:44:51;;;;;;;11.57;8.10;;;14.50;99.90;;;;;;5045513;28;20243;-77
2021/09/14 06:47:16;;;;;;;10.50;7.65;;;14.60;99.90;;;;;;5064297;28;20621;-78
2021/09/14 06:49:42;;;;;;;8.48;7.40;;;14.70;99.90;;;;;;5064422;28;20182;-78
2021/09/14 06:52:07;;;;;;;10.20;7.20;;;14.90;99.90;;;;;;5063852;28;20198;-81
2021/09/14 06:54:33;;;;;;;9.30;7.40;;;15.00;99.90;;;;;;5046409;28;20597;-75
2021/09/14 06:56:59;;;;;;;8.85;6.88;;;15.10;99.90;;;;;;5066071;28;20204;-81
2021/09/14 06:59:24;;;;;;;9.63;7.47;;;15.20;99.90;;;;;;5046720;28;20209;-79
2021/09/14 07:01:50;;;;;;;10.85;7.60;;;15.30;99.90;;;;;;5065341;28;20205;-77
2021/09/14 07:04:15;;;;;;;8.88;6.80;;;15.50;99.90;;;;;;5065394;28;20228;-80
2021/09/14 07:06:42;;;;;;;10.35;7.07;;;15.60;99.90;;;;;;5065429;28;20184;-76
2021/09/14 07:09:08;;;;;;;7.60;6.43;;;15.80;99.90;;;;;;5065520;28;20262;-77
2021/09/14 07:11:34;;;;;;;9.80;7.15;;;15.90;99.90;;;;;;5064622;28;20201;-79
2021/09/14 07:13:59;;;;;;;10.20;6.32;;;16.00;99.90;;;;;;5065877;28;20185;-79
2021/09/14 07:16:25;;;;;;;8.05;6.40;;;16.10;99.90;;;;;;5065811;28;20235;-79
2021/09/14 07:18:51;;;;;;;6.70;5.97;;;16.20;99.90;;;;;;5046625;28;20554;-78
2021/09/14 07:21:17;;;;;;;8.38;6.53;;;16.30;99.90;;;;;;5065286;28;20214;-83
2021/09/14 07:23:44;;;;;;;8.43;5.75;;;16.40;99.90;;;;;;5065844;28;20184;-76
2021/09/14 07:26:10;;;;;;;8.75;5.55;;;16.50;99.90;;;;;;5065144;28;20239;-81
2021/09/14 07:28:36;;;;;;;8.40;6.40;;;16.50;99.90;;;;;;5065682;28;20178;-79
2021/09/14 07:31:02;;;;;;;8.35;5.90;;;16.60;99.90;;;;;;5064800;28;20208;-82
2021/09/14 07:33:28;;;;;;;7.40;6.05;;;16.70;99.90;;;;;;5065238;28;20189;-77
2021/09/14 07:35:53;;;;;;;8.80;6.03;;;16.80;99.90;;;;;;5065027;28;20684;-80
2021/09/14 07:38:19;;;;;;;8.07;5.93;;;16.90;99.90;;;;;;5046486;28;20192;-81
2021/09/14 07:40:45;;;;;;;7.78;5.68;;;16.90;99.90;;;;;;5047170;28;20591;-77
2021/09/14 07:43:10;;;;;;;7.85;6.53;;;17.00;99.90;;;;;;5045463;28;20210;-83
2021/09/14 07:45:36;;;;;;;7.43;5.45;;;17.10;99.90;;;;;;5045734;28;20174;-79
2021/09/14 07:48:02;;;;;;;7.63;5.43;;;17.10;99.90;;;;;;5045544;28;20695;-78
2021/09/14 07:50:28;;;;;;;6.07;5.38;;;17.20;99.90;;;;;;5043358;28;20214;-81
2021/09/14 07:52:53;;;;;;;7.10;5.57;;;17.40;99.90;;;;;;5044188;28;20665;-80
2021/09/14 07:55:19;;;;;;;7.72;5.50;;;17.50;99.90;;;;;;5027142;28;20190;-76
2021/09/14 07:57:45;;;;;;;6.13;5.30;;;17.50;99.90;;;;;;5045272;28;20194;-77
2021/09/14 08:00:11;;;;;;;6.80;5.40;;;17.50;99.90;;;;;;5044982;28;20740;-80
2021/09/14 08:02:38;;;;;;;7.43;5.63;;;17.60;99.90;;;;;;5044591;28;20182;-80
2021/09/14 08:05:05;;;;;;;6.32;5.30;;;17.60;99.90;;;;;;5044955;28;20194;-82
2021/09/14 08:07:30;;;;;;;5.75;5.18;;;17.70;99.90;;;;;;5044798;28;20182;-79
2021/09/14 08:09:56;;;;;;;6.28;5.60;;;17.80;99.90;;;;;;5044035;28;21197;-80
2021/09/14 08:12:22;;;;;;;6.43;5.70;;;17.90;99.90;;;;;;5043184;28;20197;-80
2021/09/14 08:14:47;;;;;;;7.63;5.50;;;18.00;99.90;;;;;;5044525;28;20265;-77
2021/09/14 08:17:15;;;;;;;5.82;4.85;;;18.10;99.90;;;;;;5044913;28;20697;-76
2021/09/14 08:19:41;;;;;;;7.70;5.55;;;18.20;99.90;;;;;;5045373;28;20232;-79
2021/09/14 08:22:10;;;;;;;5.75;5.15;;;18.30;99.90;;;;;;5044123;28;20285;-78
2021/09/14 08:24:36;;;;;;;6.50;5.13;;;18.50;99.90;;;;;;5044247;28;20201;-77
2021/09/14 08:27:02;;;;;;;7.20;6.05;;;18.60;99.90;;;;;;5044501;28;20174;-77
2021/09/14 08:29:28;;;;;;;5.25;4.75;;;18.50;99.90;;;;;;5043898;28;20194;-78
2021/09/14 08:31:54;;;;;;;6.45;5.32;;;18.50;99.90;;;;;;5043542;28;20230;-76
2021/09/14 08:34:19;;;;;;;6.38;5.15;;;18.60;99.90;;;;;;5043520;28;20239;-76
2021/09/14 08:36:45;;;;;;;5.55;4.72;;;18.80;99.90;;;;;;5026052;28;20573;-74
2021/09/14 08:39:10;;;;;;;5.70;4.63;;;18.80;99.90;;;;;;5043706;28;20190;-77
2021/09/14 08:41:37;;;;;;;5.38;4.50;;;19.00;99.90;;;;;;5056927;28;20247;-77
2021/09/14 08:44:04;;;;;;;5.25;4.60;;;19.00;99.90;;;;;;5063916;28;20265;-77
2021/09/14 08:46:30;;;;;;;6.75;4.90;;;19.10;99.90;;;;;;5062352;28;20192;-76
2021/09/14 08:48:58;;;;;;;4.53;4.07;;;19.20;99.90;;;;;;5046522;28;20194;-79
2021/09/14 08:51:24;;;;;;;4.65;4.13;;;19.30;99.90;;;;;;5061280;28;20285;-78
2021/09/14 08:53:49;;;;;;;6.15;4.60;;;19.30;99.90;;;;;;5063186;28;20260;-77
2021/09/14 08:56:15;;;;;;;6.10;4.65;;;19.40;99.90;;;;;;5062233;28;20579;-72
2021/09/14 08:58:41;;;;;;;4.97;4.47;;;19.60;99.90;;;;;;5064425;28;20186;-78
2021/09/14 09:01:14;;;;;;;4.85;4.35;;;19.60;99.90;;;;;;5064737;28;20217;-81
2021/09/14 09:03:41;;;;;;;5.10;4.60;;;19.70;99.90;;;;;;5068007;28;20180;-78
2021/09/14 09:06:07;;;;;;;5.88;4.88;;;19.70;99.90;;;;;;5050394;28;20182;-80
2021/09/14 09:08:34;;;;;;;5.38;4.82;;;19.80;99.90;;;;;;5068092;28;21052;-77
2021/09/14 09:11:04;;;;;;;7.72;4.97;;;20.00;99.90;;;;;;5067010;28;20193;-78
2021/09/14 09:13:50;;;;;;;7.18;4.97;;;20.10;99.90;;;;;;5050026;28;20189;-79
2021/09/14 09:16:25;;;;;;;5.90;5.05;;;20.20;99.90;;;;;;5049781;28;20182;-77
2021/09/14 09:18:57;;;;;;;11.00;4.90;;;20.30;99.90;;;;;;5067892;28;21132;-78
2021/09/14 09:21:39;;;;;;;5.93;4.95;;;20.30;99.90;;;;;;5066100;28;20209;-79
2021/09/14 09:24:11;;;;;;;6.57;5.07;;;20.50;99.90;;;;;;5066868;28;20215;-78
2021/09/14 09:26:40;;;;;;;5.78;5.28;;;20.60;99.90;;;;;;5066529;28;20180;-77
2021/09/14 09:29:07;;;;;;;6.13;5.53;;;20.70;99.90;;;;;;5066300;28;20196;-77
2021/09/14 09:31:35;;;;;;;6.18;5.25;;;20.70;99.90;;;;;;5047539;28;20216;-78
2021/09/14 09:34:08;;;;;;;7.82;6.40;;;20.90;99.90;;;;;;5065907;28;20190;-77
2021/09/14 09:36:37;;;;;;;7.43;6.00;;;20.90;99.90;;;;;;5066083;28;20268;-76
2021/09/14 09:39:12;;;;;;;7.03;6.32;;;21.00;99.90;;;;;;5065223;28;20231;-76
2021/09/14 09:41:53;;;;;;;7.75;6.38;;;21.00;99.90;;;;;;5065475;28;20590;-79
2021/09/14 09:44:19;;;;;;;6.80;6.20;;;21.10;99.90;;;;;;5066649;28;21113;-78
2021/09/14 09:46:53;;;;;;;7.07;6.22;;;21.10;99.90;;;;;;5067511;28;20189;-76
2021/09/14 09:49:21;;;;;;;7.15;6.47;;;21.30;99.90;;;;;;5065563;28;20182;-77
2021/09/14 09:51:47;;;;;;;6.57;5.85;;;21.30;99.90;;;;;;5065656;28;20201;-76
2021/09/14 09:54:13;;;;;;;7.40;6.25;;;21.50;99.90;;;;;;5067260;28;20239;-76
2021/09/14 09:56:39;;;;;;;9.95;7.28;;;21.60;99.90;;;;;;5067404;28;20621;-78
2021/09/14 09:59:06;;;;;;;6.63;6.03;;;21.70;99.90;;;;;;5067158;28;20185;-77
2021/09/14 10:01:35;;;;;;;7.93;7.13;;;21.60;99.90;;;;;;5048193;28;21216;-76
2021/09/14 10:04:11;;;;;;;8.30;6.82;;;21.70;99.90;;;;;;5048983;28;20535;-77
2021/09/14 10:06:41;;;;;;;7.75;6.85;;;21.80;99.90;;;;;;5067021;28;20197;-75
2021/09/14 10:09:07;;;;;;;6.90;5.95;;;21.90;99.90;;;;;;5066814;28;20185;-77
2021/09/14 10:11:36;;;;;;;8.27;6.13;;;22.00;99.90;;;;;;5066173;28;20319;-77
2021/09/14 10:14:12;;;;;;;7.18;6.47;;;22.00;99.90;;;;;;5065962;28;20246;-79
2021/09/14 10:16:44;;;;;;;9.18;6.32;;;22.10;99.90;;;;;;5067003;28;20675;-77
2021/09/14 10:19:10;;;;;;;7.97;7.20;;;22.10;99.90;;;;;;5048759;28;20200;-76
2021/09/14 10:21:37;;;;;;;7.90;7.05;;;22.30;99.90;;;;;;5066631;28;20299;-77
2021/09/14 10:24:02;;;;;;;7.00;6.28;;;22.30;99.90;;;;;;5065932;28;20177;-78
2021/09/14 10:26:35;;;;;;;7.93;6.30;;;22.20;99.90;;;;;;5065469;28;20189;-78
2021/09/14 10:29:13;;;;;;;7.88;6.70;;;22.30;99.90;;;;;;5065302;28;20417;-77
2021/09/14 10:31:39;;;;;;;7.75;7.05;;;22.20;99.90;;;;;;5064130;28;20200;-78
2021/09/14 10:34:07;;;;;;;7.70;6.80;;;22.30;99.90;;;;;;5064957;28;20201;-77
2021/09/14 10:36:35;;;;;;;7.88;6.78;;;22.30;99.90;;;;;;5047710;28;20192;-77
2021/09/14 10:39:01;;;;;;;7.57;6.78;;;22.30;99.90;;;;;;5066371;28;20202;-79
2021/09/14 10:41:38;;;;;;;7.32;6.63;;;22.30;99.90;;;;;;5065635;28;20218;-78
2021/09/14 10:44:08;;;;;;;7.32;6.63;;;22.30;99.90;;;;;;5066332;28;20196;-77
2021/09/14 10:46:35;;;;;;;7.03;6.32;;;22.30;99.90;;;;;;5066595;28;20165;-78
2021/09/14 10:49:00;;;;;;;6.50;6.00;;;22.40;99.90;;;;;;5047980;28;20181;-79
2021/09/14 10:51:26;;;;;;;8.02;7.22;;;22.50;99.90;;;;;;5066122;28;20228;-78
2021/09/14 10:53:59;;;;;;;7.18;6.18;;;22.50;99.90;;;;;;5066203;28;20204;-79
2021/09/14 10:56:27;;;;;;;9.57;6.55;;;22.60;99.90;;;;;;5065769;28;20196;-80
2021/09/14 10:58:53;;;;;;;7.50;6.50;;;22.70;99.90;;;;;;5048333;28;20181;-80
2021/09/14 11:01:25;;;;;;;7.10;6.40;;;22.90;99.90;;;;;;5065569;28;20209;-80
2021/09/14 11:04:07;;;;;;;8.13;7.30;;;23.00;99.90;;;;;;5065564;28;20189;-80
2021/09/14 11:06:33;;;;;;;7.95;7.03;;;23.00;99.90;;;;;;5065323;28;20173;-78
2021/09/14 11:09:02;;;;;;;9.80;7.30;;;23.00;99.90;;;;;;5048113;28;20173;-78
2021/09/14 11:11:28;;;;;;;7.40;6.35;;;23.10;99.90;;;;;;5064874;28;20741;-80
2021/09/14 11:13:56;;;;;;;7.30;6.38;;;23.00;99.90;;;;;;5064022;28;20181;-81
2021/09/14 11:16:22;;;;;;;7.35;6.28;;;23.00;99.90;;;;;;5045546;28;20170;-79
2021/09/14 11:18:48;;;;;;;7.15;6.35;;;23.00;99.90;;;;;;5064623;28;20652;-78
2021/09/14 11:21:16;;;;;;;6.93;6.32;;;23.10;99.90;;;;;;5064043;28;20213;-78
2021/09/14 11:23:47;;;;;;;7.35;6.45;;;23.10;99.90;;;;;;5064514;28;20176;-77
2021/09/14 11:26:16;;;;;;;7.32;6.63;;;23.20;99.90;;;;;;5064666;28;20176;-77
2021/09/14 11:28:55;;;;;;;7.10;6.50;;;23.20;99.90;;;;;;5065317;28;20174;-78
2021/09/14 11:31:21;;;;;;;7.00;6.18;;;23.30;99.90;;;;;;5046457;28;20201;-78
2021/09/14 11:33:48;;;;;;;6.72;6.05;;;23.40;99.90;;;;;;5064069;28;20665;-78
2021/09/14 11:36:14;;;;;;;5.38;4.88;;;23.60;99.90;;;;;;5063637;28;20661;-77
2021/09/14 11:38:40;;;;;;;6.05;5.05;;;23.70;99.90;;;;;;5064516;28;20188;-77
2021/09/14 11:41:11;;;;;;;5.40;4.90;;;23.70;99.90;;;;;;5060905;28;20352;-77
2021/09/14 11:43:41;;;;;;;6.35;5.82;;;23.90;99.90;;;;;;5055820;28;20752;-78
2021/09/14 11:46:15;;;;;;;7.00;6.30;;;24.00;99.90;;;;;;5052450;28;20246;-79
2021/09/14 11:48:41;;;;;;;7.80;6.20;;;24.00;99.90;;;;;;5038031;28;20212;-79
2021/09/14 11:51:13;;;;;;;7.05;6.00;;;24.00;99.90;;;;;;5053691;28;20202;-77
2021/09/14 11:53:45;;;;;;;6.55;5.85;;;24.00;99.90;;;;;;5057394;28;20173;-78
2021/09/14 11:56:14;;;;;;;7.35;6.65;;;24.00;99.90;;;;;;5053958;28;20181;-77
2021/09/14 11:58:43;;;;;;;6.72;6.13;;;23.80;99.90;;;;;;5053917;28;20641;-78
2021/09/14 12:01:09;;;;;;;7.45;6.75;;;23.90;99.90;;;;;;5055425;28;20217;-78
2021/09/14 12:03:43;;;;;;;7.53;6.75;;;23.80;99.90;;;;;;5055872;28;20178;-78
2021/09/14 12:06:10;;;;;;;6.63;6.03;;;23.90;99.90;;;;;;5055553;28;20224;-77
2021/09/14 12:08:40;;;;;;;7.22;6.35;;;24.00;99.90;;;;;;5054117;28;20186;-80
2021/09/14 12:11:06;;;;;;;6.93;6.20;;;24.00;99.90;;;;;;5053252;28;20209;-78
2021/09/14 12:13:38;;;;;;;7.30;6.18;;;24.00;99.90;;;;;;5053663;28;20703;-79
2021/09/14 12:16:09;;;;;;;7.35;6.63;;;23.90;99.90;;;;;;5054772;28;20181;-77
2021/09/14 12:18:35;;;;;;;6.93;6.20;;;24.00;99.90;;;;;;5053237;28;20189;-80
2021/09/14 12:21:01;;;;;;;5.03;4.50;;;24.00;99.90;;;;;;5052325;28;20262;-79
2021/09/14 12:23:26;;;;;;;5.18;4.68;;;24.20;99.90;;;;;;5054857;28;20174;-79
2021/09/14 12:25:52;;;;;;;9.90;4.68;;;24.20;99.90;;;;;;5053439;28;20274;-77
2021/09/14 12:28:18;;;;;;;6.10;5.25;;;24.30;99.90;;;;;;5056961;28;20193;-81
2021/09/14 12:30:43;;;;;;;7.97;5.00;;;24.30;99.90;;;;;;5055296;28;21074;-82
2021/09/14 12:33:09;;;;;;;5.40;4.90;;;24.20;99.90;;;;;;5056481;28;20243;-80
2021/09/14 12:35:35;;;;;;;4.80;4.30;;;24.30;99.90;;;;;;5055712;28;20226;-82
2021/09/14 12:38:00;;;;;;;5.50;4.57;;;24.40;99.90;;;;;;5059445;28;20193;-78
2021/09/14 12:40:26;;;;;;;4.97;4.45;;;24.50;99.90;;;;;;5058368;28;20216;-77
2021/09/14 12:42:51;;;;;;;5.47;4.18;;;24.60;99.90;;;;;;5060080;28;20256;-80
2021/09/14 12:45:17;;;;;;;5.22;4.28;;;24.60;99.90;;;;;;5057658;28;20476;-77
2021/09/14 12:47:43;;;;;;;7.65;4.40;;;24.60;99.90;;;;;;5057848;28;20704;-80
2021/09/14 12:50:09;;;;;;;5.13;4.25;;;24.60;99.90;;;;;;5059098;28;20587;-81
2021/09/14 12:52:35;;;;;;;4.40;4.00;;;24.60;99.90;;;;;;5060512;28;20185;-80
2021/09/14 12:55:00;;;;;;;4.50;4.05;;;24.70;99.90;;;;;;5040805;28;20182;-81
2021/09/14 12:57:26;;;;;;;8.27;4.18;;;24.70;99.90;;;;;;5057947;28;20182;-79
2021/09/14 12:59:54;;;;;;;5.50;4.10;;;24.70;99.90;;;;;;5060554;28;20173;-82
2021/09/14 13:02:19;;;;;;;4.57;4.18;;;24.60;99.90;;;;;;5054930;28;21217;-81
2021/09/14 13:04:45;;;;;;;4.80;4.07;;;24.60;99.90;;;;;;5041129;28;20268;-78
2021/09/14 13:07:10;;;;;;;4.70;4.18;;;24.70;99.90;;;;;;5058337;28;20650;-82
2021/09/14 13:09:36;;;;;;;4.22;3.90;;;24.60;99.90;;;;;;5058142;28;20193;-78
2021/09/14 13:12:02;;;;;;;6.13;4.70;;;24.40;99.90;;;;;;5055181;28;20282;-82
2021/09/14 13:17:13;;;;;;;5.70;4.18;;;24.10;99.90;;;;;;5060341;28;20246;-80
2021/09/14 13:19:49;;;;;;;4.45;4.05;;;24.10;99.90;;;;;;5059431;28;20179;-81
2021/09/14 13:22:15;;;;;;;3.80;3.25;;;24.10;99.90;;;;;;5055752;28;20222;-80
2021/09/14 13:24:41;;;;;;;5.53;3.60;;;24.20;99.90;;;;;;5040091;28;20178;-78
2021/09/14 13:27:06;;;;;;;3.70;3.40;;;24.40;99.90;;;;;;5057543;28;21038;-77
2021/09/14 13:29:32;;;;;;;4.22;3.83;;;24.40;99.90;;;;;;5039870;28;20749;-80
2021/09/14 13:31:58;;;;;;;4.53;4.13;;;24.50;99.90;;;;;;5039985;28;20728;-83
2021/09/14 13:34:23;;;;;;;4.30;3.90;;;24.60;99.90;;;;;;5038923;28;20185;-78
2021/09/14 13:36:49;;;;;;;3.80;3.40;;;24.80;99.90;;;;;;5056750;28;20605;-78
2021/09/14 13:39:14;;;;;;;4.20;3.40;;;24.90;99.90;;;;;;5057768;28;20189;-78
2021/09/14 13:41:43;;;;;;;3.97;3.42;;;25.00;99.90;;;;;;5057194;28;20217;-77
2021/09/14 13:46:59;;;;;;;3.90;3.60;;;25.10;99.90;;;;;;5056761;28;20181;-78